KTUS

Tucson International Airport

Tucson, Arizona, USA
KTUS 182329Z 1900/1924 32008KT P6SM SKC FM190300 18005KT P6SM FEW250 FM191800 35005KT P6SM SKC
Issued Valid From Valid To
Dec-18 @ 23:29 UTC
(40 minutes ago)
Dec-19 @ 00:00 UTC
(9 minutes ago)
Dec-20 @ 00:00 UTC
(in 24 hours)
Dec-19 @ 00:00 to Dec-19 @ 03:00
KTUS 182329Z 1900/1924 32008KT P6SM SKC
Wind Visibility Clouds
320° at 8 knots Greater than 6 miles
  • Clear skies
From Dec-19 @ 03:00 to Dec-19 @ 18:00
FM190300 18005KT P6SM FEW250
Wind Visibility Clouds
180° at 5 knots Greater than 6 miles
  • Few at 25,000' AGL
From Dec-19 @ 18:00 to Dec-20 @ 00:00
FM191800 35005KT P6SM SKC
Wind Visibility Clouds
350° at 5 knots Greater than 6 miles
  • Clear skies
KTUS 182329Z 1900/1924 32008KT P6SM SKC FM190300 18005KT P6SM FEW250 FM191800 35005KT P6SM SKC
Issued Dec-18 @ 23:29 UTC
(40 minutes ago)
Valid From Dec-19 @ 00:00 UTC
(9 minutes ago)
Valid To Dec-20 @ 00:00 UTC
(in 24 hours)
Dec-19 @ 00:00 - Dec-19 @ 03:00
Wind Visibility
320° at 8 knots Greater than 6 miles
Clouds
  • Clear skies
From Dec-19 @ 03:00 - Dec-19 @ 18:00
Wind Visibility
180° at 5 knots Greater than 6 miles
Clouds
  • Few at 25,000' AGL
From Dec-19 @ 18:00 - Dec-20 @ 00:00
Wind Visibility
350° at 5 knots Greater than 6 miles
Clouds
  • Clear skies